createdAt,value
2019-03-16T00:00:39.399Z,86.30
2019-03-16T00:06:41.766Z,86.00
2019-03-16T00:12:43.887Z,85.50
2019-03-16T00:18:46.174Z,85.50
2019-03-16T00:24:48.415Z,84.60
2019-03-16T00:30:50.747Z,83.70
2019-03-16T00:36:52.885Z,83.50
2019-03-16T00:42:55.291Z,83.30
2019-03-16T00:48:57.571Z,82.80
2019-03-16T00:54:59.760Z,83.00
2019-03-16T01:01:01.895Z,83.00
2019-03-16T01:07:05.043Z,82.80
2019-03-16T01:13:07.519Z,84.20
2019-03-16T01:19:09.699Z,85.30
2019-03-16T01:25:12.718Z,86.40
2019-03-16T01:31:14.845Z,84.40
2019-03-16T01:37:16.983Z,83.70
2019-03-16T01:43:19.240Z,82.80
2019-03-16T01:49:21.608Z,83.30
2019-03-16T01:55:23.779Z,82.80
2019-03-16T02:01:26.094Z,83.90
2019-03-16T02:07:28.368Z,84.60
2019-03-16T02:13:30.507Z,86.30
2019-03-16T02:19:35.908Z,86.60
2019-03-16T02:25:38.040Z,87.20
2019-03-16T02:31:40.178Z,87.70
2019-03-16T02:37:42.444Z,88.00
2019-03-16T02:43:47.521Z,87.60
2019-03-16T02:49:50.800Z,88.00
2019-03-16T02:55:54.223Z,89.10
2019-03-16T03:01:56.457Z,90.20
2019-03-16T03:07:58.901Z,90.70
2019-03-16T03:14:01.146Z,90.90
2019-03-16T03:20:03.887Z,91.20
2019-03-16T03:26:06.540Z,91.30
2019-03-16T03:32:08.788Z,91.30
2019-03-16T03:38:11.027Z,91.40
2019-03-16T03:44:13.223Z,91.30
2019-03-16T03:50:15.541Z,91.10
2019-03-16T03:56:17.845Z,90.70
2019-03-16T04:02:20.018Z,90.50
2019-03-16T04:08:22.209Z,90.60
2019-03-16T04:14:24.372Z,90.10
2019-03-16T04:20:26.613Z,88.50
2019-03-16T04:26:29.036Z,88.80
2019-03-16T04:32:31.323Z,88.00
2019-03-16T04:38:33.444Z,87.70
2019-03-16T04:44:35.568Z,88.40
2019-03-16T04:50:37.968Z,88.60
2019-03-16T04:56:40.201Z,89.10
2019-03-16T05:02:42.343Z,89.90
2019-03-16T05:08:44.479Z,90.20
2019-03-16T05:14:46.729Z,90.50
2019-03-16T05:20:49.999Z,90.90
2019-03-16T05:26:52.419Z,90.70
2019-03-16T05:32:55.875Z,90.90
2019-03-16T05:38:58.110Z,91.00
2019-03-16T05:45:00.372Z,91.00
2019-03-16T05:51:02.652Z,91.30
2019-03-16T05:57:05.015Z,91.40
2019-03-16T06:03:07.177Z,91.10
2019-03-16T06:09:09.330Z,90.90
2019-03-16T06:15:11.597Z,90.40
2019-03-16T06:21:13.726Z,90.20
2019-03-16T06:27:17.560Z,90.10
2019-03-16T06:33:19.756Z,90.20
2019-03-16T06:39:22.045Z,90.10
2019-03-16T06:45:24.504Z,90.00
2019-03-16T06:51:26.935Z,90.10
2019-03-16T06:57:29.161Z,90.00
2019-03-16T07:03:31.498Z,89.90
2019-03-16T07:09:33.728Z,89.60
2019-03-16T07:15:36.303Z,88.90
2019-03-16T07:21:38.528Z,88.80
2019-03-16T07:27:40.727Z,88.80
2019-03-16T07:33:42.998Z,88.30
2019-03-16T07:39:45.303Z,88.40
2019-03-16T07:45:47.594Z,87.80
2019-03-16T07:51:49.887Z,87.30
2019-03-16T07:57:52.168Z,86.30
2019-03-16T08:03:54.282Z,85.50
2019-03-16T08:09:56.475Z,84.70
2019-03-16T08:15:58.679Z,84.10
2019-03-16T08:22:00.884Z,83.90
2019-03-16T08:28:03.164Z,83.00
2019-03-16T08:34:05.431Z,81.00
2019-03-16T08:40:07.975Z,82.20
2019-03-16T08:46:10.204Z,79.90
2019-03-16T08:52:12.421Z,78.80
2019-03-16T08:58:14.640Z,78.60
2019-03-16T09:04:16.911Z,79.90
2019-03-16T09:10:19.055Z,79.20
2019-03-16T09:16:21.168Z,79.60
2019-03-16T09:22:24.751Z,79.30
2019-03-16T09:28:27.099Z,79.10
2019-03-16T09:34:29.490Z,78.00
2019-03-16T09:40:34.425Z,77.80
2019-03-16T09:46:36.613Z,77.80
2019-03-16T09:52:39.250Z,78.70
2019-03-16T09:58:41.402Z,79.40
2019-03-16T10:10:45.839Z,79.60
2019-03-16T10:16:48.183Z,79.30
2019-03-16T10:22:50.363Z,78.20
2019-03-16T10:28:52.608Z,77.90
2019-03-16T10:34:54.899Z,76.50
2019-03-16T10:40:57.271Z,76.70
2019-03-16T10:46:59.682Z,76.40
2019-03-16T10:53:01.984Z,75.80
2019-03-16T10:59:04.459Z,76.10
2019-03-16T11:05:06.845Z,75.00
2019-03-16T11:11:09.515Z,74.60
2019-03-16T11:17:13.691Z,74.60
2019-03-16T11:23:15.816Z,73.50
2019-03-16T11:29:18.202Z,73.50
2019-03-16T11:35:20.617Z,72.60
2019-03-16T11:41:22.872Z,72.80
2019-03-16T11:47:25.294Z,73.00
2019-03-16T11:53:27.768Z,71.80
2019-03-16T11:59:29.975Z,71.50
2019-03-16T12:05:32.491Z,70.70
2019-03-16T12:11:34.942Z,71.20
2019-03-16T12:17:37.271Z,70.40
2019-03-16T12:23:39.564Z,71.10
2019-03-16T12:29:41.790Z,68.40
2019-03-16T12:35:43.970Z,67.30
2019-03-16T12:41:46.195Z,65.70
2019-03-16T12:47:48.535Z,64.80
2019-03-16T12:53:51.065Z,64.20
2019-03-16T12:59:53.256Z,62.10
2019-03-16T13:05:55.471Z,61.70
2019-03-16T13:11:58.870Z,62.70
2019-03-16T13:18:00.987Z,61.30
2019-03-16T13:24:06.153Z,62.70
2019-03-16T13:30:10.135Z,63.10
2019-03-16T13:36:12.584Z,61.90
2019-03-16T13:42:14.959Z,61.30
2019-03-16T13:48:17.252Z,60.50
2019-03-16T13:54:19.531Z,60.30
2019-03-16T14:00:21.824Z,59.20
2019-03-16T14:06:23.943Z,60.50
2019-03-16T14:12:26.495Z,59.80
2019-03-16T14:18:29.233Z,60.00
2019-03-16T14:24:31.354Z,59.80
2019-03-16T14:30:40.947Z,60.30
2019-03-16T14:36:38.223Z,57.10
2019-03-16T14:42:40.583Z,56.60
2019-03-16T14:48:42.805Z,56.50
2019-03-16T14:54:45.091Z,57.00
2019-03-16T15:00:47.404Z,58.30
2019-03-16T15:06:49.720Z,59.40
2019-03-16T15:12:52.061Z,59.10
2019-03-16T15:18:54.422Z,59.80
2019-03-16T15:24:56.702Z,60.10
2019-03-16T15:30:58.951Z,60.70
2019-03-16T15:37:01.083Z,60.20
2019-03-16T15:43:03.329Z,61.00
2019-03-16T15:49:05.537Z,61.30
2019-03-16T15:55:07.703Z,60.50
2019-03-16T16:01:09.928Z,61.20
2019-03-16T16:07:12.682Z,61.50
2019-03-16T16:13:14.813Z,61.40
2019-03-16T16:19:17.043Z,62.60
2019-03-16T16:25:19.702Z,62.10
2019-03-16T16:31:21.870Z,62.80
2019-03-16T16:37:24.238Z,62.80
2019-03-16T16:43:26.552Z,62.80
2019-03-16T16:49:32.211Z,63.20
2019-03-16T16:55:34.661Z,63.40
2019-03-16T17:01:37.187Z,63.40
2019-03-16T17:07:42.218Z,63.40
2019-03-16T17:13:44.952Z,63.60
2019-03-16T17:19:47.598Z,63.80
2019-03-16T17:25:49.891Z,64.50
2019-03-16T17:31:52.222Z,65.30
2019-03-16T17:37:54.371Z,65.70
2019-03-16T17:43:56.498Z,66.00
2019-03-16T17:49:58.695Z,66.60
2019-03-16T17:56:01.039Z,67.00
2019-03-16T18:02:03.268Z,67.70
2019-03-16T18:08:05.412Z,68.20
2019-03-16T18:14:07.525Z,68.70
2019-03-16T18:20:10.345Z,69.20
2019-03-16T18:26:12.750Z,69.50
2019-03-16T18:32:15.050Z,69.60
2019-03-16T18:38:17.473Z,69.90
2019-03-16T18:44:19.732Z,70.40
2019-03-16T18:50:22.235Z,71.40
2019-03-16T18:56:25.043Z,73.40
2019-03-16T19:02:27.385Z,75.30
2019-03-16T19:08:29.820Z,76.70
2019-03-16T19:14:32.307Z,77.70
2019-03-16T19:20:34.514Z,78.40
2019-03-16T19:26:36.977Z,80.30
2019-03-16T19:32:40.588Z,80.40
2019-03-16T19:38:42.994Z,81.70
2019-03-16T19:44:45.642Z,83.20
2019-03-16T19:50:47.816Z,84.30
2019-03-16T19:56:50.027Z,84.70
2019-03-16T20:02:54.536Z,85.40
2019-03-16T20:08:57.210Z,86.60
2019-03-16T20:14:59.415Z,88.60
2019-03-16T20:21:01.739Z,89.60
2019-03-16T20:27:03.969Z,90.30
2019-03-16T20:33:06.591Z,90.00
2019-03-16T20:39:09.097Z,90.20
2019-03-16T20:45:12.557Z,90.50
2019-03-16T20:51:14.882Z,91.10
2019-03-16T20:57:17.119Z,91.70
2019-03-16T21:03:19.399Z,92.00
2019-03-16T21:09:21.878Z,91.60
2019-03-16T21:15:24.104Z,92.50
2019-03-16T21:21:26.374Z,92.40
2019-03-16T21:27:28.834Z,92.60
2019-03-16T21:33:31.087Z,92.90
2019-03-16T21:39:39.505Z,92.50
2019-03-16T21:45:41.743Z,92.80
2019-03-16T21:51:44.034Z,92.80
2019-03-16T21:57:46.286Z,92.60
2019-03-16T22:03:48.500Z,92.80
2019-03-16T22:09:50.627Z,93.20
2019-03-16T22:15:52.873Z,93.00
2019-03-16T22:21:55.059Z,93.20
2019-03-16T22:27:57.127Z,93.80
2019-03-16T22:33:59.471Z,94.00
2019-03-16T22:40:01.730Z,93.90
2019-03-16T22:46:03.952Z,94.60
2019-03-16T22:52:06.288Z,95.90
2019-03-16T22:58:08.415Z,95.10
2019-03-16T23:04:10.647Z,95.00
2019-03-16T23:10:12.787Z,94.60
2019-03-16T23:16:14.946Z,94.60
2019-03-16T23:22:17.256Z,94.60
2019-03-16T23:28:19.453Z,95.00
2019-03-16T23:34:21.558Z,94.90
2019-03-16T23:40:23.944Z,95.10
2019-03-16T23:46:26.155Z,95.20
2019-03-16T23:52:28.259Z,94.70
2019-03-16T23:58:30.472Z,94.50
